sensor_id;sensor_type;location;lat;lon;timestamp;pressure;altitude;pressure_sealevel;temperature;humidity
59274;BME280;45044;41.572;24.730;2023-02-23T00:01:23;91207.88;;;2.81;100.00
59274;BME280;45044;41.572;24.730;2023-02-23T00:03:50;91200.53;;;2.83;100.00
59274;BME280;45044;41.572;24.730;2023-02-23T00:06:20;91208.09;;;2.88;100.00
59274;BME280;45044;41.572;24.730;2023-02-23T00:08:48;91199.53;;;2.87;100.00
59274;BME280;45044;41.572;24.730;2023-02-23T00:11:15;91201.19;;;2.80;100.00
59274;BME280;45044;41.572;24.730;2023-02-23T00:13:44;91195.78;;;2.72;100.00
59274;BME280;45044;41.572;24.730;2023-02-23T00:16:18;91204.50;;;2.80;100.00
59274;BME280;45044;41.572;24.730;2023-02-23T00:18:54;91196.84;;;2.71;100.00
59274;BME280;45044;41.572;24.730;2023-02-23T00:21:23;91201.50;;;2.66;100.00
59274;BME280;45044;41.572;24.730;2023-02-23T00:23:55;91200.44;;;2.54;100.00
59274;BME280;45044;41.572;24.730;2023-02-23T00:26:33;91201.38;;;2.62;100.00
59274;BME280;45044;41.572;24.730;2023-02-23T00:29:03;91199.03;;;2.57;100.00
59274;BME280;45044;41.572;24.730;2023-02-23T00:31:31;91197.28;;;2.61;100.00
59274;BME280;45044;41.572;24.730;2023-02-23T00:33:59;91196.00;;;2.55;100.00
59274;BME280;45044;41.572;24.730;2023-02-23T00:36:30;91206.81;;;2.44;100.00
59274;BME280;45044;41.572;24.730;2023-02-23T00:39:06;91200.22;;;2.47;100.00
59274;BME280;45044;41.572;24.730;2023-02-23T00:41:50;91199.47;;;2.59;100.00
59274;BME280;45044;41.572;24.730;2023-02-23T00:44:19;91197.53;;;2.56;100.00
59274;BME280;45044;41.572;24.730;2023-02-23T00:46:47;91193.81;;;2.57;100.00
59274;BME280;45044;41.572;24.730;2023-02-23T00:49:19;91191.00;;;2.62;100.00
59274;BME280;45044;41.572;24.730;2023-02-23T00:51:47;91189.94;;;2.63;100.00
59274;BME280;45044;41.572;24.730;2023-02-23T00:54:15;91185.81;;;2.62;100.00
59274;BME280;45044;41.572;24.730;2023-02-23T00:56:42;91187.78;;;2.27;100.00
59274;BME280;45044;41.572;24.730;2023-02-23T00:59:10;91180.84;;;2.44;100.00
59274;BME280;45044;41.572;24.730;2023-02-23T01:01:38;91167.34;;;2.38;100.00
59274;BME280;45044;41.572;24.730;2023-02-23T01:04:08;91178.50;;;2.39;100.00
59274;BME280;45044;41.572;24.730;2023-02-23T01:06:35;91175.78;;;2.48;100.00
59274;BME280;45044;41.572;24.730;2023-02-23T01:09:12;91173.28;;;2.39;100.00
59274;BME280;45044;41.572;24.730;2023-02-23T01:11:41;91176.97;;;2.38;100.00
59274;BME280;45044;41.572;24.730;2023-02-23T01:14:12;91170.25;;;2.37;100.00
59274;BME280;45044;41.572;24.730;2023-02-23T01:16:39;91169.59;;;2.40;100.00
59274;BME280;45044;41.572;24.730;2023-02-23T01:19:05;91174.69;;;2.36;100.00
59274;BME280;45044;41.572;24.730;2023-02-23T01:21:35;91173.19;;;2.23;100.00
59274;BME280;45044;41.572;24.730;2023-02-23T01:24:02;91176.97;;;2.25;100.00
59274;BME280;45044;41.572;24.730;2023-02-23T01:26:34;91173.72;;;2.16;100.00
59274;BME280;45044;41.572;24.730;2023-02-23T01:29:07;91173.06;;;2.07;100.00
59274;BME280;45044;41.572;24.730;2023-02-23T01:31:36;91171.66;;;2.09;100.00
59274;BME280;45044;41.572;24.730;2023-02-23T01:34:04;91170.91;;;2.09;100.00
59274;BME280;45044;41.572;24.730;2023-02-23T01:36:36;91168.84;;;2.14;100.00
59274;BME280;45044;41.572;24.730;2023-02-23T01:39:07;91173.50;;;2.21;100.00
59274;BME280;45044;41.572;24.730;2023-02-23T01:41:35;91172.00;;;2.20;100.00
59274;BME280;45044;41.572;24.730;2023-02-23T01:44:06;91166.47;;;2.22;100.00
59274;BME280;45044;41.572;24.730;2023-02-23T01:46:38;91171.88;;;2.17;100.00
59274;BME280;45044;41.572;24.730;2023-02-23T01:49:07;91170.50;;;2.19;100.00
59274;BME280;45044;41.572;24.730;2023-02-23T01:51:40;91176.66;;;2.27;100.00
59274;BME280;45044;41.572;24.730;2023-02-23T01:54:14;91167.69;;;2.24;100.00
59274;BME280;45044;41.572;24.730;2023-02-23T01:56:44;91171.88;;;2.17;100.00
59274;BME280;45044;41.572;24.730;2023-02-23T01:59:15;91164.53;;;2.19;100.00
59274;BME280;45044;41.572;24.730;2023-02-23T02:01:44;91157.94;;;2.09;100.00
59274;BME280;45044;41.572;24.730;2023-02-23T02:04:11;91159.22;;;2.02;100.00
59274;BME280;45044;41.572;24.730;2023-02-23T02:06:44;91162.81;;;2.10;100.00
59274;BME280;45044;41.572;24.730;2023-02-23T02:09:15;91162.69;;;1.94;100.00
59274;BME280;45044;41.572;24.730;2023-02-23T02:11:43;91174.34;;;2.00;100.00
59274;BME280;45044;41.572;24.730;2023-02-23T02:14:18;91165.50;;;2.01;100.00
59274;BME280;45044;41.572;24.730;2023-02-23T02:20:22;91172.63;;;1.92;100.00
59274;BME280;45044;41.572;24.730;2023-02-23T02:40:14;91181.66;;;1.73;100.00
59274;BME280;45044;41.572;24.730;2023-02-23T02:46:12;91180.25;;;1.63;100.00
59274;BME280;45044;41.572;24.730;2023-02-23T02:56:24;91191.47;;;1.80;100.00
59274;BME280;45044;41.572;24.730;2023-02-23T02:58:52;91180.66;;;1.65;100.00
59274;BME280;45044;41.572;24.730;2023-02-23T03:01:19;91183.81;;;1.71;100.00
59274;BME280;45044;41.572;24.730;2023-02-23T03:04:23;91190.28;;;1.65;100.00
59274;BME280;45044;41.572;24.730;2023-02-23T03:07:22;91195.34;;;1.61;100.00
59274;BME280;45044;41.572;24.730;2023-02-23T03:16:42;91196.41;;;1.26;100.00
59274;BME280;45044;41.572;24.730;2023-02-23T03:22:54;91197.25;;;1.18;100.00
59274;BME280;45044;41.572;24.730;2023-02-23T03:28:34;91195.13;;;1.11;100.00
59274;BME280;45044;41.572;24.730;2023-02-23T03:34:37;91203.16;;;0.97;100.00
59274;BME280;45044;41.572;24.730;2023-02-23T03:37:36;91199.94;;;1.00;100.00
59274;BME280;45044;41.572;24.730;2023-02-23T03:40:24;91213.06;;;0.95;100.00
59274;BME280;45044;41.572;24.730;2023-02-23T03:43:15;91209.44;;;0.96;100.00
59274;BME280;45044;41.572;24.730;2023-02-23T03:46:03;91207.16;;;1.16;100.00
59274;BME280;45044;41.572;24.730;2023-02-23T03:48:52;91204.13;;;1.14;100.00
59274;BME280;45044;41.572;24.730;2023-02-23T03:51:41;91203.59;;;0.99;100.00
59274;BME280;45044;41.572;24.730;2023-02-23T03:54:36;91205.69;;;1.06;100.00
59274;BME280;45044;41.572;24.730;2023-02-23T03:57:26;91202.97;;;1.02;100.00
59274;BME280;45044;41.572;24.730;2023-02-23T04:00:18;91194.34;;;0.98;100.00
59274;BME280;45044;41.572;24.730;2023-02-23T04:03:05;91208.91;;;1.03;100.00
59274;BME280;45044;41.572;24.730;2023-02-23T04:05:53;91203.28;;;1.22;100.00
59274;BME280;45044;41.572;24.730;2023-02-23T04:08:40;91182.50;;;1.10;100.00
59274;BME280;45044;41.572;24.730;2023-02-23T04:11:47;91208.66;;;1.17;100.00
59274;BME280;45044;41.572;24.730;2023-02-23T04:17:21;91192.09;;;1.09;100.00
59274;BME280;45044;41.572;24.730;2023-02-23T04:19:51;91195.84;;;0.99;100.00
59274;BME280;45044;41.572;24.730;2023-02-23T04:22:18;91194.94;;;0.95;100.00
59274;BME280;45044;41.572;24.730;2023-02-23T04:24:45;91190.22;;;0.97;100.00
59274;BME280;45044;41.572;24.730;2023-02-23T04:27:13;91195.91;;;0.90;100.00
59274;BME280;45044;41.572;24.730;2023-02-23T04:29:40;91199.81;;;0.97;100.00
59274;BME280;45044;41.572;24.730;2023-02-23T04:32:16;91198.56;;;1.03;100.00
59274;BME280;45044;41.572;24.730;2023-02-23T04:34:44;91195.91;;;1.12;100.00
59274;BME280;45044;41.572;24.730;2023-02-23T04:37:12;91194.19;;;1.16;100.00
59274;BME280;45044;41.572;24.730;2023-02-23T04:39:39;91198.50;;;1.12;100.00
59274;BME280;45044;41.572;24.730;2023-02-23T04:42:08;91197.25;;;1.18;100.00
59274;BME280;45044;41.572;24.730;2023-02-23T04:44:35;91197.41;;;1.13;100.00
59274;BME280;45044;41.572;24.730;2023-02-23T04:47:02;91194.16;;;1.03;100.00
59274;BME280;45044;41.572;24.730;2023-02-23T04:49:29;91199.69;;;0.93;100.00
59274;BME280;45044;41.572;24.730;2023-02-23T04:51:56;91200.31;;;0.90;100.00
59274;BME280;45044;41.572;24.730;2023-02-23T04:54:23;91206.13;;;0.87;100.00
59274;BME280;45044;41.572;24.730;2023-02-23T04:56:49;91199.59;;;0.80;100.00
59274;BME280;45044;41.572;24.730;2023-02-23T04:59:16;91206.31;;;0.81;100.00
59274;BME280;45044;41.572;24.730;2023-02-23T05:01:43;91198.88;;;0.80;100.00
59274;BME280;45044;41.572;24.730;2023-02-23T05:04:10;91202.47;;;0.88;100.00
59274;BME280;45044;41.572;24.730;2023-02-23T05:06:37;91201.72;;;0.87;100.00
59274;BME280;45044;41.572;24.730;2023-02-23T05:09:04;91206.97;;;1.00;100.00
59274;BME280;45044;41.572;24.730;2023-02-23T05:11:33;91203.16;;;0.97;100.00
59274;BME280;45044;41.572;24.730;2023-02-23T05:13:59;91203.03;;;0.93;100.00
59274;BME280;45044;41.572;24.730;2023-02-23T05:16:26;91213.50;;;0.97;100.00
59274;BME280;45044;41.572;24.730;2023-02-23T05:18:53;91207.56;;;0.97;100.00
59274;BME280;45044;41.572;24.730;2023-02-23T05:21:20;91207.75;;;1.13;100.00
59274;BME280;45044;41.572;24.730;2023-02-23T05:23:48;91212.53;;;1.11;100.00
59274;BME280;45044;41.572;24.730;2023-02-23T05:26:15;91216.09;;;0.97;100.00
59274;BME280;45044;41.572;24.730;2023-02-23T05:28:42;91220.34;;;1.02;100.00
59274;BME280;45044;41.572;24.730;2023-02-23T05:31:09;91233.59;;;1.00;100.00
59274;BME280;45044;41.572;24.730;2023-02-23T05:33:37;91223.06;;;1.05;100.00
59274;BME280;45044;41.572;24.730;2023-02-23T05:36:16;91223.16;;;1.09;100.00
59274;BME280;45044;41.572;24.730;2023-02-23T05:38:44;91232.84;;;1.21;100.00
59274;BME280;45044;41.572;24.730;2023-02-23T05:41:17;91228.84;;;1.24;100.00
59274;BME280;45044;41.572;24.730;2023-02-23T05:43:45;91238.94;;;1.25;100.00
59274;BME280;45044;41.572;24.730;2023-02-23T05:46:15;91234.81;;;1.24;100.00
59274;BME280;45044;41.572;24.730;2023-02-23T05:48:42;91242.81;;;1.31;100.00
59274;BME280;45044;41.572;24.730;2023-02-23T05:51:11;91235.25;;;1.26;100.00
59274;BME280;45044;41.572;24.730;2023-02-23T05:53:38;91244.53;;;1.27;100.00
59274;BME280;45044;41.572;24.730;2023-02-23T05:56:06;91239.47;;;1.31;100.00
59274;BME280;45044;41.572;24.730;2023-02-23T05:58:34;91246.31;;;1.36;100.00
59274;BME280;45044;41.572;24.730;2023-02-23T06:01:00;91251.75;;;1.43;100.00
59274;BME280;45044;41.572;24.730;2023-02-23T06:03:27;91248.94;;;1.48;100.00
59274;BME280;45044;41.572;24.730;2023-02-23T06:05:56;91253.50;;;1.51;100.00
59274;BME280;45044;41.572;24.730;2023-02-23T06:08:24;91252.34;;;1.61;100.00
59274;BME280;45044;41.572;24.730;2023-02-23T06:10:51;91253.47;;;1.73;100.00
59274;BME280;45044;41.572;24.730;2023-02-23T06:13:18;91253.47;;;1.73;100.00
59274;BME280;45044;41.572;24.730;2023-02-23T06:15:47;91264.31;;;1.87;100.00
59274;BME280;45044;41.572;24.730;2023-02-23T06:18:15;91266.97;;;2.00;100.00
59274;BME280;45044;41.572;24.730;2023-02-23T06:20:44;91262.00;;;2.07;100.00
59274;BME280;45044;41.572;24.730;2023-02-23T06:23:11;91264.88;;;2.27;100.00
59274;BME280;45044;41.572;24.730;2023-02-23T06:25:39;91263.69;;;2.49;100.00
59274;BME280;45044;41.572;24.730;2023-02-23T06:28:08;91261.53;;;2.64;100.00
59274;BME280;45044;41.572;24.730;2023-02-23T06:30:39;91264.19;;;3.71;100.00
59274;BME280;45044;41.572;24.730;2023-02-23T06:33:07;91263.41;;;5.49;100.00
59274;BME280;45044;41.572;24.730;2023-02-23T06:35:34;91262.47;;;7.14;100.00
59274;BME280;45044;41.572;24.730;2023-02-23T06:38:01;91263.13;;;8.38;95.65
59274;BME280;45044;41.572;24.730;2023-02-23T06:40:28;91258.72;;;9.48;83.73
59274;BME280;45044;41.572;24.730;2023-02-23T06:42:56;91262.06;;;10.41;73.09
59274;BME280;45044;41.572;24.730;2023-02-23T06:45:22;91261.34;;;11.35;66.03
59274;BME280;45044;41.572;24.730;2023-02-23T06:47:49;91265.69;;;12.01;61.73
59274;BME280;45044;41.572;24.730;2023-02-23T06:50:16;91264.09;;;12.86;58.08
59274;BME280;45044;41.572;24.730;2023-02-23T06:52:43;91261.13;;;13.29;55.53
59274;BME280;45044;41.572;24.730;2023-02-23T06:55:10;91252.88;;;14.01;53.15
59274;BME280;45044;41.572;24.730;2023-02-23T06:57:38;91255.88;;;14.62;51.09
59274;BME280;45044;41.572;24.730;2023-02-23T07:00:07;91252.25;;;15.28;48.97
59274;BME280;45044;41.572;24.730;2023-02-23T07:02:34;91254.97;;;15.89;48.15
59274;BME280;45044;41.572;24.730;2023-02-23T07:05:03;91253.78;;;16.51;46.01
59274;BME280;45044;41.572;24.730;2023-02-23T07:07:30;91253.78;;;17.05;45.38
59274;BME280;45044;41.572;24.730;2023-02-23T07:09:58;91255.47;;;17.62;43.94
59274;BME280;45044;41.572;24.730;2023-02-23T07:12:25;91252.97;;;18.14;43.58
59274;BME280;45044;41.572;24.730;2023-02-23T07:14:52;91249.34;;;18.76;42.77
59274;BME280;45044;41.572;24.730;2023-02-23T07:17:18;91254.84;;;19.21;42.33
59274;BME280;45044;41.572;24.730;2023-02-23T07:19:45;91242.09;;;19.51;41.18
59274;BME280;45044;41.572;24.730;2023-02-23T07:22:12;91257.72;;;19.75;41.51
59274;BME280;45044;41.572;24.730;2023-02-23T07:24:38;91248.38;;;19.58;41.34
59274;BME280;45044;41.572;24.730;2023-02-23T07:27:05;91251.88;;;19.68;40.29
59274;BME280;45044;41.572;24.730;2023-02-23T07:29:32;91249.03;;;20.07;39.85
59274;BME280;45044;41.572;24.730;2023-02-23T07:31:59;91253.13;;;19.63;39.54
59274;BME280;45044;41.572;24.730;2023-02-23T07:34:26;91252.22;;;18.95;41.37
59274;BME280;45044;41.572;24.730;2023-02-23T07:36:53;91252.31;;;18.10;42.07
59274;BME280;45044;41.572;24.730;2023-02-23T07:39:20;91259.75;;;17.72;43.21
59274;BME280;45044;41.572;24.730;2023-02-23T07:41:46;91256.22;;;16.25;45.86
59274;BME280;45044;41.572;24.730;2023-02-23T07:44:13;91255.91;;;16.39;45.17
59274;BME280;45044;41.572;24.730;2023-02-23T07:46:40;91253.16;;;16.26;46.42
59274;BME280;45044;41.572;24.730;2023-02-23T07:49:07;91253.59;;;16.42;45.14
59274;BME280;45044;41.572;24.730;2023-02-23T07:51:35;91249.50;;;16.57;44.44
59274;BME280;45044;41.572;24.730;2023-02-23T07:54:03;91248.66;;;16.60;45.13
59274;BME280;45044;41.572;24.730;2023-02-23T07:56:31;91245.75;;;15.77;45.28
59274;BME280;45044;41.572;24.730;2023-02-23T07:58:58;91247.19;;;16.02;46.29
59274;BME280;45044;41.572;24.730;2023-02-23T08:01:25;91245.94;;;15.66;47.33
59274;BME280;45044;41.572;24.730;2023-02-23T08:03:53;91245.94;;;16.64;45.04
59274;BME280;45044;41.572;24.730;2023-02-23T08:06:20;91241.19;;;16.55;45.30
59274;BME280;45044;41.572;24.730;2023-02-23T08:08:47;91252.81;;;17.45;44.09
59274;BME280;45044;41.572;24.730;2023-02-23T08:11:16;91246.28;;;17.33;43.32
59274;BME280;45044;41.572;24.730;2023-02-23T08:13:51;91243.09;;;17.55;41.37
59274;BME280;45044;41.572;24.730;2023-02-23T08:16:19;91252.81;;;18.34;41.93
59274;BME280;45044;41.572;24.730;2023-02-23T08:18:46;91244.16;;;17.11;42.92
59274;BME280;45044;41.572;24.730;2023-02-23T08:21:13;91245.13;;;18.23;40.78
59274;BME280;45044;41.572;24.730;2023-02-23T08:23:40;91244.97;;;18.57;40.12
59274;BME280;45044;41.572;24.730;2023-02-23T08:26:06;91236.84;;;19.83;38.17
59274;BME280;45044;41.572;24.730;2023-02-23T08:28:33;91233.63;;;19.66;38.57
59274;BME280;45044;41.572;24.730;2023-02-23T08:31:00;91237.84;;;21.26;37.00
59274;BME280;45044;41.572;24.730;2023-02-23T08:33:27;91239.06;;;20.52;37.56
59274;BME280;45044;41.572;24.730;2023-02-23T08:35:57;91233.09;;;21.30;36.99
59274;BME280;45044;41.572;24.730;2023-02-23T08:38:33;91228.63;;;22.31;35.82
59274;BME280;45044;41.572;24.730;2023-02-23T08:48:29;91215.06;;;24.00;33.59
59274;BME280;45044;41.572;24.730;2023-02-23T08:50:59;91216.72;;;23.83;34.35
59274;BME280;45044;41.572;24.730;2023-02-23T08:53:26;91214.84;;;21.66;35.68
59274;BME280;45044;41.572;24.730;2023-02-23T08:56:00;91213.78;;;20.12;36.21
59274;BME280;45044;41.572;24.730;2023-02-23T08:58:28;91214.72;;;20.91;36.15
59274;BME280;45044;41.572;24.730;2023-02-23T09:00:56;91214.38;;;20.80;36.21
59274;BME280;45044;41.572;24.730;2023-02-23T09:03:23;91212.16;;;21.29;35.82
59274;BME280;45044;41.572;24.730;2023-02-23T09:05:52;91211.41;;;20.78;36.55
59274;BME280;45044;41.572;24.730;2023-02-23T09:08:19;91210.09;;;20.09;36.94
59274;BME280;45044;41.572;24.730;2023-02-23T09:10:46;91215.34;;;20.22;36.36
59274;BME280;45044;41.572;24.730;2023-02-23T09:13:13;91204.09;;;21.01;35.53
59274;BME280;45044;41.572;24.730;2023-02-23T09:15:42;91209.78;;;21.40;34.40
59274;BME280;45044;41.572;24.730;2023-02-23T09:18:10;91209.78;;;21.69;35.01
59274;BME280;45044;41.572;24.730;2023-02-23T09:20:43;91209.44;;;22.32;34.80
59274;BME280;45044;41.572;24.730;2023-02-23T09:23:11;91211.88;;;21.83;34.79
59274;BME280;45044;41.572;24.730;2023-02-23T09:25:42;91206.66;;;21.80;34.82
59274;BME280;45044;41.572;24.730;2023-02-23T09:28:27;91203.06;;;20.57;36.00
59274;BME280;45044;41.572;24.730;2023-02-23T09:31:07;91204.72;;;21.52;35.95
59274;BME280;45044;41.572;24.730;2023-02-23T09:33:35;91198.19;;;21.44;35.44
59274;BME280;45044;41.572;24.730;2023-02-23T09:36:23;91212.75;;;21.61;34.92
59274;BME280;45044;41.572;24.730;2023-02-23T09:38:52;91202.50;;;22.07;34.41
59274;BME280;45044;41.572;24.730;2023-02-23T09:44:22;91198.94;;;20.75;35.17
59274;BME280;45044;41.572;24.730;2023-02-23T09:47:23;91196.84;;;20.69;36.04
59274;BME280;45044;41.572;24.730;2023-02-23T09:49:52;91202.28;;;20.98;35.30
59274;BME280;45044;41.572;24.730;2023-02-23T09:52:23;91206.66;;;20.73;36.65
59274;BME280;45044;41.572;24.730;2023-02-23T09:54:51;91194.50;;;21.60;34.50
59274;BME280;45044;41.572;24.730;2023-02-23T09:57:28;91186.88;;;22.14;34.92
59274;BME280;45044;41.572;24.730;2023-02-23T09:59:59;91191.69;;;21.35;34.88
59274;BME280;45044;41.572;24.730;2023-02-23T10:02:36;91190.47;;;21.46;34.81
59274;BME280;45044;41.572;24.730;2023-02-23T10:05:07;91186.78;;;20.83;35.48
59274;BME280;45044;41.572;24.730;2023-02-23T10:07:49;91185.50;;;22.29;33.97
59274;BME280;45044;41.572;24.730;2023-02-23T10:10:44;91185.13;;;22.02;33.39
59274;BME280;45044;41.572;24.730;2023-02-23T10:15:52;91178.63;;;21.37;34.30
59274;BME280;45044;41.572;24.730;2023-02-23T10:18:39;91183.63;;;21.73;34.56
59274;BME280;45044;41.572;24.730;2023-02-23T10:21:18;91173.56;;;21.30;35.38
59274;BME280;45044;41.572;24.730;2023-02-23T10:23:57;91182.16;;;21.81;35.14
59274;BME280;45044;41.572;24.730;2023-02-23T10:26:34;91165.97;;;21.85;35.40
59274;BME280;45044;41.572;24.730;2023-02-23T10:29:18;91175.31;;;21.61;35.54
59274;BME280;45044;41.572;24.730;2023-02-23T10:31:50;91168.47;;;20.94;36.66
59274;BME280;45044;41.572;24.730;2023-02-23T10:34:18;91164.19;;;21.16;36.57
59274;BME280;45044;41.572;24.730;2023-02-23T10:36:57;91157.44;;;20.92;36.01
59274;BME280;45044;41.572;24.730;2023-02-23T10:39:25;91160.75;;;21.06;36.53
59274;BME280;45044;41.572;24.730;2023-02-23T10:41:53;91167.44;;;21.48;36.81
59274;BME280;45044;41.572;24.730;2023-02-23T10:44:23;91151.41;;;21.48;35.26
59274;BME280;45044;41.572;24.730;2023-02-23T10:47:02;91164.31;;;21.59;35.21
59274;BME280;45044;41.572;24.730;2023-02-23T10:49:39;91159.28;;;21.71;35.89
59274;BME280;45044;41.572;24.730;2023-02-23T10:52:14;91151.31;;;20.22;36.73
59274;BME280;45044;41.572;24.730;2023-02-23T10:54:47;91142.66;;;21.38;36.57
59274;BME280;45044;41.572;24.730;2023-02-23T10:57:22;91149.03;;;22.41;35.00
59274;BME280;45044;41.572;24.730;2023-02-23T11:02:45;91137.75;;;21.09;36.63
59274;BME280;45044;41.572;24.730;2023-02-23T11:08:26;91135.78;;;20.81;36.95
59274;BME280;45044;41.572;24.730;2023-02-23T11:13:47;91129.25;;;21.95;36.20
59274;BME280;45044;41.572;24.730;2023-02-23T11:21:40;91109.19;;;20.77;37.84
59274;BME280;45044;41.572;24.730;2023-02-23T11:24:18;91117.50;;;20.89;38.10
59274;BME280;45044;41.572;24.730;2023-02-23T11:26:47;91113.69;;;20.39;38.45
59274;BME280;45044;41.572;24.730;2023-02-23T11:29:21;91121.09;;;19.26;40.50
59274;BME280;45044;41.572;24.730;2023-02-23T11:31:54;91121.66;;;19.66;39.51
59274;BME280;45044;41.572;24.730;2023-02-23T11:34:34;91127.03;;;18.95;40.93
59274;BME280;45044;41.572;24.730;2023-02-23T11:37:07;91122.38;;;19.22;41.95
59274;BME280;45044;41.572;24.730;2023-02-23T11:39:52;91118.06;;;19.15;40.76
59274;BME280;45044;41.572;24.730;2023-02-23T11:42:30;91107.84;;;18.00;42.73
59274;BME280;45044;41.572;24.730;2023-02-23T11:47:33;91131.50;;;16.45;46.00
59274;BME280;45044;41.572;24.730;2023-02-23T11:50:05;91127.13;;;15.64;47.70
59274;BME280;45044;41.572;24.730;2023-02-23T11:52:33;91125.25;;;15.44;48.42
59274;BME280;45044;41.572;24.730;2023-02-23T11:55:04;91126.78;;;15.62;48.57
59274;BME280;45044;41.572;24.730;2023-02-23T11:57:35;91133.28;;;15.78;49.01
59274;BME280;45044;41.572;24.730;2023-02-23T12:00:10;91122.16;;;16.57;48.38
59274;BME280;45044;41.572;24.730;2023-02-23T12:02:55;91124.66;;;17.41;47.47
59274;BME280;45044;41.572;24.730;2023-02-23T12:05:24;91128.34;;;16.84;47.40
59274;BME280;45044;41.572;24.730;2023-02-23T12:10:31;91131.59;;;15.67;48.87
59274;BME280;45044;41.572;24.730;2023-02-23T12:18:36;91134.84;;;15.14;51.02
59274;BME280;45044;41.572;24.730;2023-02-23T12:24:09;91126.59;;;14.64;53.87
59274;BME280;45044;41.572;24.730;2023-02-23T12:26:50;91140.28;;;14.59;55.67
59274;BME280;45044;41.572;24.730;2023-02-23T12:29:36;91141.28;;;13.89;56.95
59274;BME280;45044;41.572;24.730;2023-02-23T12:32:18;91137.16;;;13.88;58.91
59274;BME280;45044;41.572;24.730;2023-02-23T12:34:50;91134.63;;;13.77;60.24
59274;BME280;45044;41.572;24.730;2023-02-23T12:40:15;91151.97;;;13.44;62.51
59274;BME280;45044;41.572;24.730;2023-02-23T12:45:22;91135.41;;;13.74;63.21
59274;BME280;45044;41.572;24.730;2023-02-23T12:50:33;91150.41;;;13.53;64.48
59274;BME280;45044;41.572;24.730;2023-02-23T12:53:17;91146.16;;;13.60;66.22
59274;BME280;45044;41.572;24.730;2023-02-23T13:10:49;91172.75;;;13.03;73.72
59274;BME280;45044;41.572;24.730;2023-02-23T13:13:40;91164.22;;;12.88;78.35
59274;BME280;45044;41.572;24.730;2023-02-23T13:19:16;91169.38;;;13.02;79.44
59274;BME280;45044;41.572;24.730;2023-02-23T13:24:27;91173.59;;;12.47;87.09
59274;BME280;45044;41.572;24.730;2023-02-23T13:26:59;91180.78;;;12.42;90.26
59274;BME280;45044;41.572;24.730;2023-02-23T13:29:48;91178.00;;;12.61;89.10
59274;BME280;45044;41.572;24.730;2023-02-23T13:32:20;91179.91;;;12.56;91.33
59274;BME280;45044;41.572;24.730;2023-02-23T13:34:52;91173.75;;;12.21;95.25
59274;BME280;45044;41.572;24.730;2023-02-23T13:37:24;91179.09;;;12.06;98.32
59274;BME280;45044;41.572;24.730;2023-02-23T13:46:02;91184.94;;;12.36;96.17
59274;BME280;45044;41.572;24.730;2023-02-23T13:48:58;91181.16;;;12.41;96.35
59274;BME280;45044;41.572;24.730;2023-02-23T13:51:37;91171.91;;;12.14;100.00
59274;BME280;45044;41.572;24.730;2023-02-23T13:56:46;91192.25;;;12.14;100.00
59274;BME280;45044;41.572;24.730;2023-02-23T13:59:22;91196.75;;;12.17;100.00
59274;BME280;45044;41.572;24.730;2023-02-23T14:01:52;91203.91;;;12.09;100.00
59274;BME280;45044;41.572;24.730;2023-02-23T14:04:25;91203.19;;;12.12;100.00
59274;BME280;45044;41.572;24.730;2023-02-23T14:07:13;91201.25;;;12.16;100.00
59274;BME280;45044;41.572;24.730;2023-02-23T14:09:48;91203.53;;;12.14;100.00
59274;BME280;45044;41.572;24.730;2023-02-23T14:18:04;91187.53;;;11.72;100.00
59274;BME280;45044;41.572;24.730;2023-02-23T14:24:10;91220.56;;;11.88;100.00
59274;BME280;45044;41.572;24.730;2023-02-23T14:26:42;91213.81;;;11.83;100.00
59274;BME280;45044;41.572;24.730;2023-02-23T14:34:43;91218.00;;;11.73;100.00
59274;BME280;45044;41.572;24.730;2023-02-23T14:37:22;91220.97;;;11.82;100.00
59274;BME280;45044;41.572;24.730;2023-02-23T14:39:52;91222.88;;;11.71;100.00
59274;BME280;45044;41.572;24.730;2023-02-23T14:42:23;91221.75;;;11.76;100.00
59274;BME280;45044;41.572;24.730;2023-02-23T14:44:53;91219.88;;;11.65;100.00
59274;BME280;45044;41.572;24.730;2023-02-23T14:47:23;91217.34;;;11.32;100.00
59274;BME280;45044;41.572;24.730;2023-02-23T14:50:01;91224.13;;;11.33;100.00
59274;BME280;45044;41.572;24.730;2023-02-23T14:52:32;91220.75;;;11.25;100.00
59274;BME280;45044;41.572;24.730;2023-02-23T14:55:19;91221.91;;;11.21;100.00
59274;BME280;45044;41.572;24.730;2023-02-23T14:57:47;91226.41;;;11.06;100.00
59274;BME280;45044;41.572;24.730;2023-02-23T15:00:22;91224.16;;;11.08;100.00
59274;BME280;45044;41.572;24.730;2023-02-23T15:03:04;91235.44;;;11.08;100.00
59274;BME280;45044;41.572;24.730;2023-02-23T15:05:44;91229.03;;;11.24;100.00
59274;BME280;45044;41.572;24.730;2023-02-23T15:08:16;91234.31;;;11.02;100.00
59274;BME280;45044;41.572;24.730;2023-02-23T15:10:45;91241.09;;;10.99;100.00
59274;BME280;45044;41.572;24.730;2023-02-23T15:13:26;91244.06;;;11.05;100.00
59274;BME280;45044;41.572;24.730;2023-02-23T15:15:56;91245.59;;;11.02;100.00
59274;BME280;45044;41.572;24.730;2023-02-23T15:18:30;91241.81;;;11.07;100.00
59274;BME280;45044;41.572;24.730;2023-02-23T15:20:58;91245.97;;;11.12;100.00
59274;BME280;45044;41.572;24.730;2023-02-23T15:23:25;91250.09;;;11.02;100.00
59274;BME280;45044;41.572;24.730;2023-02-23T15:25:51;91250.47;;;11.08;100.00
59274;BME280;45044;41.572;24.730;2023-02-23T15:28:25;91252.72;;;11.02;100.00
59274;BME280;45044;41.572;24.730;2023-02-23T15:30:55;91247.09;;;11.04;100.00
59274;BME280;45044;41.572;24.730;2023-02-23T15:33:22;91247.84;;;10.97;100.00
59274;BME280;45044;41.572;24.730;2023-02-23T15:36:03;91260.63;;;10.87;100.00
59274;BME280;45044;41.572;24.730;2023-02-23T15:38:34;91247.84;;;10.82;100.00